createdAt,value
2016-10-26T00:00:37.251Z,18.53
2016-10-26T00:01:37.234Z,18.51
2016-10-26T00:02:37.251Z,18.54
2016-10-26T00:03:37.198Z,18.51
2016-10-26T00:04:36.557Z,18.59
2016-10-26T00:05:36.853Z,18.51
2016-10-26T00:06:37.144Z,18.5
2016-10-26T00:07:36.819Z,18.56
2016-10-26T00:08:37.112Z,18.54
2016-10-26T00:09:37.107Z,18.53
2016-10-26T00:10:37.107Z,18.53
2016-10-26T00:11:37.068Z,18.54
2016-10-26T00:12:37.042Z,18.56
2016-10-26T00:13:37.025Z,18.53
2016-10-26T00:14:37.010Z,18.51
2016-10-26T00:15:36.995Z,18.53
2016-10-26T00:16:37.013Z,18.53
2016-10-26T00:17:36.644Z,18.54
2016-10-26T00:18:36.621Z,18.54
2016-10-26T00:19:36.605Z,18.56
2016-10-26T00:20:36.281Z,18.51
2016-10-26T00:21:36.924Z,18.53
2016-10-26T00:22:36.868Z,18.59
2016-10-26T00:23:36.543Z,18.56
2016-10-26T00:24:36.851Z,18.5
2016-10-26T00:25:36.504Z,18.54
2016-10-26T00:26:36.801Z,18.54
2016-10-26T00:27:36.795Z,18.56
2016-10-26T00:28:36.811Z,18.53
2016-10-26T00:29:36.755Z,18.54
2016-10-26T00:30:36.421Z,18.56
2016-10-26T00:31:36.717Z,18.56
2016-10-26T00:32:36.705Z,18.53
2016-10-26T00:33:36.409Z,18.59
2016-10-26T00:34:36.346Z,18.5
2016-10-26T00:35:36.337Z,18.56
2016-10-26T00:36:36.634Z,18.56
2016-10-26T00:37:36.617Z,18.54
2016-10-26T00:38:36.593Z,18.53
2016-10-26T00:39:36.257Z,18.53
2016-10-26T00:40:36.561Z,18.59
2016-10-26T00:41:36.224Z,18.5
2016-10-26T00:42:36.534Z,18.53
2016-10-26T00:43:36.503Z,18.53
2016-10-26T00:44:36.492Z,18.6
2016-10-26T00:45:36.163Z,18.51
2016-10-26T00:46:36.458Z,18.56
2016-10-26T00:47:36.481Z,18.57
2016-10-26T00:48:36.111Z,18.62
2016-10-26T00:49:36.407Z,18.59
2016-10-26T00:50:36.389Z,18.56
2016-10-26T00:51:36.382Z,18.5
2016-10-26T00:52:36.361Z,18.51
2016-10-26T00:53:36.338Z,18.59
2016-10-26T00:54:36.321Z,18.53
2016-10-26T00:55:35.993Z,18.57
2016-10-26T00:56:35.974Z,18.54
2016-10-26T00:57:36.271Z,18.53
2016-10-26T00:58:36.258Z,18.54
2016-10-26T00:59:35.917Z,18.53
2016-10-26T01:00:36.224Z,18.53
2016-10-26T01:01:36.240Z,18.5
2016-10-26T01:02:36.183Z,18.56
2016-10-26T01:03:36.172Z,18.56
2016-10-26T01:04:36.145Z,18.51
2016-10-26T01:05:35.496Z,18.6
2016-10-26T01:06:36.117Z,18.54
2016-10-26T01:07:36.101Z,18.54
2016-10-26T01:08:36.079Z,18.57
2016-10-26T01:09:36.065Z,18.53
2016-10-26T01:10:36.052Z,18.56
2016-10-26T01:11:36.031Z,18.53
2016-10-26T01:12:36.013Z,18.51
2016-10-26T01:13:36.032Z,18.51
2016-10-26T01:14:35.985Z,18.53
2016-10-26T01:15:35.650Z,18.46
2016-10-26T01:16:35.940Z,18.56
2016-10-26T01:17:35.929Z,18.51
2016-10-26T01:18:35.916Z,18.5
2016-10-26T01:19:35.931Z,18.54
2016-10-26T01:20:35.909Z,18.57
2016-10-26T01:21:35.544Z,18.47
2016-10-26T01:22:35.843Z,18.5
2016-10-26T01:23:35.820Z,18.57
2016-10-26T01:24:35.819Z,18.5
2016-10-26T01:25:35.481Z,18.51
2016-10-26T01:26:35.768Z,18.56
2016-10-26T01:27:35.451Z,18.53
2016-10-26T01:28:35.744Z,18.47
2016-10-26T01:29:35.725Z,18.49
2016-10-26T01:30:35.705Z,18.51
2016-10-26T01:31:35.375Z,18.53
2016-10-26T01:32:35.671Z,18.51
2016-10-26T01:33:35.332Z,18.5
2016-10-26T01:34:35.321Z,18.56
2016-10-26T01:35:35.625Z,18.53
2016-10-26T01:36:35.604Z,18.49
2016-10-26T01:37:35.577Z,18.47
2016-10-26T01:38:35.571Z,18.56
2016-10-26T01:39:35.552Z,18.51
2016-10-26T01:40:35.535Z,18.5
2016-10-26T01:41:35.514Z,18.51
2016-10-26T01:42:35.495Z,18.56
2016-10-26T01:43:35.483Z,18.49
2016-10-26T01:44:35.154Z,18.49
2016-10-26T01:45:35.440Z,18.51
2016-10-26T01:46:35.433Z,18.51
2016-10-26T01:47:35.413Z,18.47
2016-10-26T01:48:35.403Z,18.49
2016-10-26T01:49:35.580Z,18.47
2016-10-26T01:50:35.051Z,18.57
2016-10-26T01:51:35.043Z,18.53
2016-10-26T01:52:35.324Z,18.56
2016-10-26T01:53:35.301Z,18.6
2016-10-26T01:54:34.657Z,18.57
2016-10-26T01:55:35.276Z,18.44
2016-10-26T01:56:35.254Z,18.57
2016-10-26T01:57:35.244Z,18.51
2016-10-26T01:58:35.224Z,18.51
2016-10-26T01:59:35.202Z,18.51
2016-10-26T02:00:35.188Z,18.54
2016-10-26T02:01:35.173Z,18.53
2016-10-26T02:02:35.153Z,18.57
2016-10-26T02:03:35.146Z,18.47
2016-10-26T02:04:35.159Z,18.53
2016-10-26T02:05:35.098Z,18.56
2016-10-26T02:06:35.085Z,18.56
2016-10-26T02:07:35.069Z,18.54
2016-10-26T02:08:34.744Z,18.44
2016-10-26T02:09:34.715Z,18.47
2016-10-26T02:10:35.010Z,18.51
2016-10-26T02:11:34.688Z,18.54
2016-10-26T02:12:35.015Z,18.54
2016-10-26T02:13:34.956Z,18.54
2016-10-26T02:14:34.949Z,18.49
2016-10-26T02:15:34.928Z,18.47
2016-10-26T02:16:34.902Z,18.51
2016-10-26T02:17:34.899Z,18.49
2016-10-26T02:18:34.882Z,18.39
2016-10-26T02:19:34.858Z,18.5
2016-10-26T02:20:34.527Z,18.47
2016-10-26T02:21:34.829Z,18.56
2016-10-26T02:22:34.801Z,18.49
2016-10-26T02:23:34.796Z,18.44
2016-10-26T02:24:34.775Z,18.42
2016-10-26T02:25:34.751Z,18.42
2016-10-26T02:26:34.733Z,18.44
2016-10-26T02:27:34.089Z,18.57
2016-10-26T02:28:34.420Z,18.56
2016-10-26T02:29:34.683Z,18.47
2016-10-26T02:30:34.669Z,18.53
2016-10-26T02:31:34.652Z,18.53
2016-10-26T02:32:34.631Z,18.49
2016-10-26T02:33:34.622Z,18.39
2016-10-26T02:34:34.598Z,18.5
2016-10-26T02:35:34.587Z,18.54
2016-10-26T02:36:34.566Z,18.47
2016-10-26T02:37:34.554Z,18.38
2016-10-26T02:38:34.572Z,18.41
2016-10-26T02:39:34.510Z,18.35
2016-10-26T02:40:34.409Z,18.36
2016-10-26T02:41:34.483Z,18.39
2016-10-26T02:42:34.469Z,18.49
2016-10-26T02:43:34.443Z,18.41
2016-10-26T02:44:34.425Z,18.41
2016-10-26T02:45:34.412Z,18.35
2016-10-26T02:46:34.076Z,18.34
2016-10-26T02:47:34.377Z,18.38
2016-10-26T02:48:34.356Z,18.39
2016-10-26T02:49:34.345Z,18.38
2016-10-26T02:50:34.324Z,18.5
2016-10-26T02:51:34.305Z,18.42
2016-10-26T02:52:34.301Z,18.41
2016-10-26T02:53:34.270Z,18.49
2016-10-26T02:54:34.263Z,18.34
2016-10-26T02:55:34.244Z,18.35
2016-10-26T02:56:34.217Z,18.38
2016-10-26T02:57:34.203Z,18.42
2016-10-26T02:58:34.230Z,18.36
2016-10-26T02:59:33.853Z,18.42
2016-10-26T03:00:34.152Z,18.38
2016-10-26T03:01:34.137Z,18.38
2016-10-26T03:02:34.113Z,18.38
2016-10-26T03:03:34.101Z,18.36
2016-10-26T03:04:34.079Z,18.35
2016-10-26T03:05:34.072Z,18.38
2016-10-26T03:06:34.051Z,18.41
2016-10-26T03:07:34.028Z,18.38
2016-10-26T03:08:34.022Z,18.36
2016-10-26T03:09:33.993Z,18.38
2016-10-26T03:10:33.983Z,18.35
2016-10-26T03:11:33.642Z,18.34
2016-10-26T03:12:33.947Z,18.34
2016-10-26T03:13:33.962Z,18.44
2016-10-26T03:14:33.625Z,18.41
2016-10-26T03:15:33.935Z,18.35
2016-10-26T03:16:33.880Z,18.38
2016-10-26T03:17:33.890Z,18.42
2016-10-26T03:18:33.844Z,18.41
2016-10-26T03:19:33.824Z,18.42
2016-10-26T03:20:33.817Z,18.44
2016-10-26T03:21:33.782Z,18.32
2016-10-26T03:22:33.773Z,18.38
2016-10-26T03:23:33.750Z,18.46
2016-10-26T03:24:33.744Z,18.39
2016-10-26T03:25:33.407Z,18.39
2016-10-26T03:26:33.392Z,18.35
2016-10-26T03:27:33.687Z,18.36
2016-10-26T03:28:33.357Z,18.44
2016-10-26T03:29:33.659Z,18.39
2016-10-26T03:30:33.629Z,18.39
2016-10-26T03:31:33.622Z,18.39
2016-10-26T03:32:33.280Z,18.47
2016-10-26T03:33:33.266Z,18.41
2016-10-26T03:34:33.568Z,18.39
2016-10-26T03:35:33.545Z,18.36
2016-10-26T03:36:33.523Z,18.38
2016-10-26T03:37:33.194Z,18.38
2016-10-26T03:38:33.499Z,18.38
2016-10-26T03:39:33.478Z,18.32
2016-10-26T03:40:33.460Z,18.39
2016-10-26T03:41:33.133Z,18.39
2016-10-26T03:42:33.113Z,18.42
2016-10-26T03:43:33.409Z,18.38
2016-10-26T03:44:33.392Z,18.41
2016-10-26T03:45:33.062Z,18.38
2016-10-26T03:46:33.358Z,18.42
2016-10-26T03:47:33.338Z,18.39
2016-10-26T03:48:33.329Z,18.44
2016-10-26T03:49:33.317Z,18.41
2016-10-26T03:50:33.282Z,18.39
2016-10-26T03:51:32.965Z,18.34
2016-10-26T03:52:33.256Z,18.41
2016-10-26T03:53:33.234Z,18.46
2016-10-26T03:54:33.223Z,18.41
2016-10-26T03:55:33.208Z,18.38
2016-10-26T03:56:32.865Z,18.36
2016-10-26T03:57:33.158Z,18.42
2016-10-26T03:58:32.843Z,18.39
2016-10-26T03:59:33.129Z,18.38
2016-10-26T04:00:33.118Z,18.35
2016-10-26T04:01:33.098Z,18.42
2016-10-26T04:02:33.077Z,18.39
2016-10-26T04:03:33.068Z,18.38
2016-10-26T04:04:33.047Z,18.38
2016-10-26T04:05:32.712Z,18.42
2016-10-26T04:06:32.698Z,18.38
2016-10-26T04:07:32.983Z,18.42
2016-10-26T04:08:32.668Z,18.41
2016-10-26T04:09:32.957Z,18.41
2016-10-26T04:10:32.946Z,18.36
2016-10-26T04:11:32.606Z,18.38
2016-10-26T04:12:32.917Z,18.35
2016-10-26T04:13:32.582Z,18.38
2016-10-26T04:14:32.880Z,18.41
2016-10-26T04:15:32.539Z,18.38
2016-10-26T04:16:32.835Z,18.35
2016-10-26T04:17:32.823Z,18.35
2016-10-26T04:18:32.804Z,18.38
2016-10-26T04:19:32.797Z,18.39
2016-10-26T04:20:32.461Z,18.35
2016-10-26T04:21:32.766Z,18.42
2016-10-26T04:22:32.779Z,18.35
2016-10-26T04:23:32.710Z,18.36
2016-10-26T04:24:32.430Z,18.38
2016-10-26T04:25:32.686Z,18.47
2016-10-26T04:26:32.666Z,18.34
2016-10-26T04:27:32.013Z,18.39
2016-10-26T04:28:32.316Z,18.35
2016-10-26T04:29:32.619Z,18.36
2016-10-26T04:30:32.595Z,18.34
2016-10-26T04:31:32.267Z,18.31
2016-10-26T04:32:32.283Z,18.32
2016-10-26T04:33:32.544Z,18.39
2016-10-26T04:34:32.531Z,18.44
2016-10-26T04:35:32.528Z,18.34
2016-10-26T04:36:32.179Z,18.34
2016-10-26T04:37:32.480Z,18.34
2016-10-26T04:38:32.148Z,18.36
2016-10-26T04:39:32.439Z,18.38
2016-10-26T04:40:32.426Z,18.32
2016-10-26T04:41:32.409Z,18.34
2016-10-26T04:42:32.388Z,18.31
2016-10-26T04:43:32.381Z,18.38
2016-10-26T04:44:32.354Z,18.31
2016-10-26T04:45:32.018Z,18.29
2016-10-26T04:46:32.005Z,18.36
2016-10-26T04:47:31.670Z,18.35
2016-10-26T04:48:32.287Z,18.32
2016-10-26T04:49:31.950Z,18.29
2016-10-26T04:50:32.256Z,18.31
2016-10-26T04:51:31.918Z,18.29
2016-10-26T04:52:31.900Z,18.35
2016-10-26T04:53:31.888Z,18.31
2016-10-26T04:54:31.872Z,18.41
2016-10-26T04:55:32.169Z,18.35
2016-10-26T04:56:31.873Z,18.35
2016-10-26T04:57:32.127Z,18.34
2016-10-26T04:58:32.115Z,18.38
2016-10-26T04:59:31.786Z,18.34
2016-10-26T05:00:32.075Z,18.32
2016-10-26T05:01:32.080Z,18.32
2016-10-26T05:02:31.739Z,18.31
2016-10-26T05:03:31.717Z,18.35
2016-10-26T05:04:32.010Z,18.36
2016-10-26T05:05:31.991Z,18.32
2016-10-26T05:06:31.972Z,18.32
2016-10-26T05:07:31.962Z,18.35
2016-10-26T05:08:31.627Z,18.29
2016-10-26T05:09:31.928Z,18.32
2016-10-26T05:10:31.594Z,18.35
2016-10-26T05:11:31.900Z,18.31
2016-10-26T05:12:31.559Z,18.34
2016-10-26T05:13:31.846Z,18.34
2016-10-26T05:14:31.844Z,18.23
2016-10-26T05:15:31.504Z,18.28
2016-10-26T05:16:31.804Z,18.29
2016-10-26T05:17:31.783Z,18.23
2016-10-26T05:18:31.458Z,18.28
2016-10-26T05:19:31.437Z,18.29
2016-10-26T05:20:31.734Z,18.31
2016-10-26T05:21:31.404Z,18.31
2016-10-26T05:22:31.381Z,18.28
2016-10-26T05:23:31.054Z,18.21
2016-10-26T05:24:31.667Z,18.28
2016-10-26T05:25:31.647Z,18.25
2016-10-26T05:26:31.630Z,18.25
2016-10-26T05:27:31.653Z,18.28
2016-10-26T05:28:31.286Z,18.28
2016-10-26T05:29:31.575Z,18.25
2016-10-26T05:30:31.288Z,18.31
2016-10-26T05:31:31.541Z,18.29
2016-10-26T05:32:31.559Z,18.32
2016-10-26T05:33:31.202Z,18.31
2016-10-26T05:34:31.173Z,18.26
2016-10-26T05:35:31.162Z,18.25
2016-10-26T05:36:31.452Z,18.29
2016-10-26T05:37:31.153Z,18.29
2016-10-26T05:38:31.114Z,18.28
2016-10-26T05:39:31.099Z,18.23
2016-10-26T05:40:31.392Z,18.32
2016-10-26T05:41:31.413Z,18.23
2016-10-26T05:42:31.443Z,18.25
2016-10-26T05:43:31.326Z,18.28
2016-10-26T05:44:31.311Z,18.31
2016-10-26T05:45:31.298Z,18.26
2016-10-26T05:46:31.281Z,18.29
2016-10-26T05:47:31.269Z,18.21
2016-10-26T05:48:31.248Z,18.29
2016-10-26T05:49:31.224Z,18.31
2016-10-26T05:50:30.924Z,18.32
2016-10-26T05:51:31.196Z,18.34
2016-10-26T05:52:31.181Z,18.28
2016-10-26T05:53:31.168Z,18.31
2016-10-26T05:54:31.147Z,18.31
2016-10-26T05:55:30.812Z,18.31
2016-10-26T05:56:31.119Z,18.32
2016-10-26T05:57:31.088Z,18.31
2016-10-26T05:58:30.752Z,18.36
2016-10-26T05:59:30.751Z,18.29
2016-10-26T06:00:31.038Z,18.28
2016-10-26T06:01:31.021Z,18.29
2016-10-26T06:02:31.003Z,18.31
2016-10-26T06:03:30.999Z,18.32
2016-10-26T06:04:30.981Z,18.31
2016-10-26T06:05:30.643Z,18.28
2016-10-26T06:06:30.307Z,18.31
2016-10-26T06:07:30.922Z,18.31
2016-10-26T06:08:30.584Z,18.31
2016-10-26T06:09:30.567Z,18.31
2016-10-26T06:10:30.878Z,18.21
2016-10-26T06:11:30.861Z,18.32
2016-10-26T06:12:30.842Z,18.31
2016-10-26T06:13:30.819Z,18.26
2016-10-26T06:14:30.800Z,18.31
2016-10-26T06:15:31.018Z,18.28
2016-10-26T06:16:30.449Z,18.29
2016-10-26T06:17:30.750Z,18.25
2016-10-26T06:18:30.729Z,18.25
2016-10-26T06:19:30.714Z,18.23
2016-10-26T06:20:30.692Z,18.29
2016-10-26T06:21:30.673Z,18.29
2016-10-26T06:22:30.670Z,18.28
2016-10-26T06:23:30.643Z,18.26
2016-10-26T06:24:30.675Z,18.26
2016-10-26T06:25:30.613Z,18.28
2016-10-26T06:26:30.603Z,18.35
2016-10-26T06:27:30.576Z,18.26
2016-10-26T06:28:30.556Z,18.25
2016-10-26T06:29:30.537Z,18.35
2016-10-26T06:30:30.562Z,18.29
2016-10-26T06:31:30.505Z,18.31
2016-10-26T06:32:30.172Z,18.31
2016-10-26T06:33:30.522Z,18.23
2016-10-26T06:34:30.451Z,18.29
2016-10-26T06:35:30.435Z,18.23
2016-10-26T06:36:30.413Z,18.29
2016-10-26T06:37:30.418Z,18.26
2016-10-26T06:38:30.379Z,18.32
2016-10-26T06:39:30.373Z,18.38
2016-10-26T06:40:30.353Z,18.23
2016-10-26T06:41:30.019Z,18.35
2016-10-26T06:42:29.690Z,18.26
2016-10-26T06:43:29.983Z,18.26
2016-10-26T06:44:30.286Z,18.28
2016-10-26T06:45:30.254Z,18.35
2016-10-26T06:46:30.254Z,18.23
2016-10-26T06:47:30.224Z,18.35
2016-10-26T06:48:30.209Z,18.36
2016-10-26T06:49:30.196Z,18.35
2016-10-26T06:50:29.547Z,18.36
2016-10-26T06:51:30.162Z,18.28
2016-10-26T06:52:29.828Z,18.31
2016-10-26T06:53:30.133Z,18.26
2016-10-26T06:54:30.104Z,18.31
2016-10-26T06:55:30.099Z,18.31
2016-10-26T06:56:30.075Z,18.28
2016-10-26T06:57:30.062Z,18.23
2016-10-26T06:58:30.041Z,18.32
2016-10-26T06:59:30.023Z,18.32
2016-10-26T07:00:29.688Z,18.34
2016-10-26T07:01:29.669Z,18.28
2016-10-26T07:02:29.968Z,18.28
2016-10-26T07:03:29.631Z,18.32
2016-10-26T07:04:29.615Z,18.25
2016-10-26T07:05:29.919Z,18.25
2016-10-26T07:06:29.905Z,18.23
2016-10-26T07:07:29.880Z,18.26
2016-10-26T07:08:29.863Z,18.32
2016-10-26T07:09:29.848Z,18.38
2016-10-26T07:10:29.512Z,18.31
2016-10-26T07:11:29.814Z,18.32
2016-10-26T07:12:29.804Z,18.25
2016-10-26T07:13:29.780Z,18.36
2016-10-26T07:14:29.765Z,18.23
2016-10-26T07:15:29.740Z,18.26
2016-10-26T07:16:29.729Z,18.42
2016-10-26T07:17:29.703Z,18.31
2016-10-26T07:18:29.691Z,18.32
2016-10-26T07:19:29.675Z,18.31
2016-10-26T07:20:29.660Z,18.29
2016-10-26T07:21:29.640Z,18.32
2016-10-26T07:22:29.296Z,18.34
2016-10-26T07:23:29.852Z,18.25
2016-10-26T07:24:29.271Z,18.32
2016-10-26T07:25:29.252Z,18.28
2016-10-26T07:26:29.237Z,18.36
2016-10-26T07:27:29.528Z,18.31
2016-10-26T07:28:29.517Z,18.34
2016-10-26T07:29:29.507Z,18.35
2016-10-26T07:30:29.166Z,18.34
2016-10-26T07:31:29.460Z,18.31
2016-10-26T07:32:29.448Z,18.32
2016-10-26T07:33:29.115Z,18.29
2016-10-26T07:34:29.475Z,18.36
2016-10-26T07:35:29.394Z,18.32
2016-10-26T07:36:29.375Z,18.32
2016-10-26T07:37:29.362Z,18.34
2016-10-26T07:38:29.335Z,18.28
2016-10-26T07:39:29.327Z,18.25
2016-10-26T07:40:29.308Z,18.25
2016-10-26T07:41:28.978Z,18.31
2016-10-26T07:42:29.277Z,18.31
2016-10-26T07:43:29.254Z,18.34
2016-10-26T07:44:29.243Z,18.32
2016-10-26T07:45:29.226Z,18.29
2016-10-26T07:46:29.203Z,18.32
2016-10-26T07:47:29.177Z,18.34
2016-10-26T07:48:29.169Z,18.36
2016-10-26T07:49:29.154Z,18.29
2016-10-26T07:50:29.135Z,18.28
2016-10-26T07:51:28.803Z,18.25
2016-10-26T07:52:29.100Z,18.31
2016-10-26T07:53:29.085Z,18.31
2016-10-26T07:54:28.752Z,18.28
2016-10-26T07:55:29.046Z,18.34
2016-10-26T07:56:29.026Z,18.29
2016-10-26T07:57:29.013Z,18.32
2016-10-26T07:58:28.996Z,18.34
2016-10-26T07:59:28.974Z,18.29
2016-10-26T08:00:28.960Z,18.31
2016-10-26T08:01:28.943Z,18.34
2016-10-26T08:02:28.620Z,18.35
2016-10-26T08:03:28.599Z,18.35
2016-10-26T08:04:28.887Z,18.35
2016-10-26T08:05:28.872Z,18.35
2016-10-26T08:06:28.542Z,18.35
2016-10-26T08:07:28.841Z,18.36
2016-10-26T08:08:28.818Z,18.35
2016-10-26T08:09:28.805Z,18.32
2016-10-26T08:10:28.468Z,18.32
2016-10-26T08:11:28.449Z,18.25
2016-10-26T08:12:28.749Z,18.32
2016-10-26T08:13:28.732Z,18.36
2016-10-26T08:14:28.719Z,18.32
2016-10-26T08:15:28.385Z,18.34
2016-10-26T08:16:28.678Z,18.32
2016-10-26T08:17:28.664Z,18.35
2016-10-26T08:18:28.649Z,18.32
2016-10-26T08:19:28.330Z,18.41
2016-10-26T08:20:28.606Z,18.34
2016-10-26T08:21:28.593Z,18.41
2016-10-26T08:22:28.263Z,18.39
2016-10-26T08:23:28.250Z,18.36
2016-10-26T08:24:28.546Z,18.34
2016-10-26T08:25:28.530Z,18.38
2016-10-26T08:26:28.505Z,18.38
2016-10-26T08:27:28.179Z,18.34
2016-10-26T08:28:28.158Z,18.36
2016-10-26T08:29:28.459Z,18.46
2016-10-26T08:30:28.129Z,18.47
2016-10-26T08:31:28.422Z,18.47
2016-10-26T08:32:28.087Z,18.46
2016-10-26T08:33:28.386Z,18.39
2016-10-26T08:34:28.364Z,18.34
2016-10-26T08:35:28.358Z,18.31
2016-10-26T08:36:28.019Z,18.29
2016-10-26T08:37:28.317Z,18.35
2016-10-26T08:38:27.981Z,18.35
2016-10-26T08:39:28.290Z,18.41
2016-10-26T08:40:28.267Z,18.34
2016-10-26T08:41:27.940Z,18.38
2016-10-26T08:42:28.268Z,18.39
2016-10-26T08:43:27.577Z,18.35
2016-10-26T08:44:28.228Z,18.34
2016-10-26T08:45:28.177Z,18.41
2016-10-26T08:46:27.852Z,18.32
2016-10-26T08:47:28.189Z,18.44
2016-10-26T08:48:27.823Z,18.41
2016-10-26T08:49:27.792Z,18.34
2016-10-26T08:50:28.094Z,18.39
2016-10-26T08:51:28.072Z,18.41
2016-10-26T08:52:28.100Z,18.42
2016-10-26T08:53:28.044Z,18.42
2016-10-26T08:54:28.021Z,18.47
2016-10-26T08:55:28.000Z,18.41
2016-10-26T08:56:28.017Z,18.41
2016-10-26T08:57:27.972Z,18.41
2016-10-26T08:58:27.955Z,18.41
2016-10-26T08:59:27.940Z,18.42
2016-10-26T09:00:27.923Z,18.42
2016-10-26T09:01:27.596Z,18.44
2016-10-26T09:02:27.894Z,18.38
2016-10-26T09:03:27.867Z,18.35
2016-10-26T09:04:27.539Z,18.38
2016-10-26T09:05:27.524Z,18.42
2016-10-26T09:06:27.491Z,18.41
2016-10-26T09:07:27.802Z,18.35
2016-10-26T09:08:27.467Z,18.38
2016-10-26T09:09:27.451Z,18.38
2016-10-26T09:10:27.750Z,18.32
2016-10-26T09:11:27.411Z,18.38
2016-10-26T09:12:27.400Z,18.42
2016-10-26T09:13:27.695Z,18.36
2016-10-26T09:14:27.678Z,18.39
2016-10-26T09:15:27.659Z,18.44
2016-10-26T09:16:27.639Z,18.38
2016-10-26T09:17:27.626Z,18.38
2016-10-26T09:18:27.611Z,18.38
2016-10-26T09:19:27.599Z,18.41
2016-10-26T09:20:27.578Z,18.39
2016-10-26T09:21:27.247Z,18.39
2016-10-26T09:22:27.221Z,18.41
2016-10-26T09:23:27.520Z,18.34
2016-10-26T09:24:27.517Z,18.41
2016-10-26T09:25:27.172Z,18.41
2016-10-26T09:26:27.467Z,18.46
2016-10-26T09:27:27.448Z,18.35
2016-10-26T09:28:27.430Z,18.42
2016-10-26T09:29:27.099Z,18.38
2016-10-26T09:30:27.406Z,18.41
2016-10-26T09:31:27.384Z,18.44
2016-10-26T09:32:27.370Z,18.34
2016-10-26T09:33:27.353Z,18.38
2016-10-26T09:34:27.331Z,18.34
2016-10-26T09:35:27.306Z,18.41
2016-10-26T09:36:26.983Z,18.41
2016-10-26T09:37:26.963Z,18.35
2016-10-26T09:38:27.260Z,18.35
2016-10-26T09:39:27.244Z,18.39
2016-10-26T09:40:27.221Z,18.39
2016-10-26T09:41:27.208Z,18.38
2016-10-26T09:42:27.193Z,18.46
2016-10-26T09:43:26.860Z,18.38
2016-10-26T09:44:26.848Z,18.39
2016-10-26T09:45:26.822Z,18.44
2016-10-26T09:46:26.843Z,18.34
2016-10-26T09:47:27.115Z,18.36
2016-10-26T09:48:26.816Z,18.42
2016-10-26T09:49:27.070Z,18.36
2016-10-26T09:50:26.745Z,18.32
2016-10-26T09:51:26.716Z,18.41
2016-10-26T09:52:27.021Z,18.38
2016-10-26T09:53:26.739Z,18.42
2016-10-26T09:54:26.673Z,18.39
2016-10-26T09:55:26.967Z,18.47
2016-10-26T09:56:26.949Z,18.38
2016-10-26T09:57:26.933Z,18.38
2016-10-26T09:58:26.917Z,18.47
2016-10-26T09:59:26.906Z,18.51
2016-10-26T10:00:26.883Z,18.34
2016-10-26T10:01:26.871Z,18.38
2016-10-26T10:02:26.848Z,18.49
2016-10-26T10:03:26.520Z,18.5
2016-10-26T10:04:26.816Z,18.51
2016-10-26T10:05:26.794Z,18.35
2016-10-26T10:06:26.776Z,18.38
2016-10-26T10:07:26.750Z,18.38
2016-10-26T10:08:26.736Z,18.38
2016-10-26T10:09:26.729Z,18.38
2016-10-26T10:10:26.393Z,18.49
2016-10-26T10:11:26.705Z,18.38
2016-10-26T10:12:26.672Z,18.38
2016-10-26T10:13:26.653Z,18.38
2016-10-26T10:14:26.321Z,18.38
2016-10-26T10:15:26.654Z,18.49
2016-10-26T10:16:26.597Z,18.51
2016-10-26T10:17:26.586Z,18.5
2016-10-26T10:18:26.574Z,18.38
2016-10-26T10:19:26.553Z,18.49
2016-10-26T10:20:26.536Z,18.47
2016-10-26T10:21:26.203Z,18.51
2016-10-26T10:22:26.499Z,18.6
2016-10-26T10:23:26.482Z,18.51
2016-10-26T10:24:26.147Z,18.54
2016-10-26T10:25:26.141Z,18.47
2016-10-26T10:26:26.439Z,18.53
2016-10-26T10:27:26.097Z,18.53
2016-10-26T10:28:26.390Z,18.53
2016-10-26T10:29:26.370Z,18.53
2016-10-26T10:30:26.392Z,18.51
2016-10-26T10:31:26.030Z,18.53
2016-10-26T10:32:26.011Z,18.54
2016-10-26T10:33:26.302Z,18.5
2016-10-26T10:34:26.287Z,18.44
2016-10-26T10:35:26.275Z,18.49
2016-10-26T10:36:26.253Z,18.54
2016-10-26T10:37:26.237Z,18.47
2016-10-26T10:38:26.224Z,18.57
2016-10-26T10:39:26.207Z,18.5
2016-10-26T10:40:26.191Z,18.46
2016-10-26T10:41:26.168Z,18.49
2016-10-26T10:42:25.875Z,18.47
2016-10-26T10:43:25.828Z,18.5
2016-10-26T10:44:26.124Z,18.54
2016-10-26T10:45:26.107Z,18.53
2016-10-26T10:46:25.772Z,18.53
2016-10-26T10:47:26.078Z,18.57
2016-10-26T10:48:26.082Z,18.53
2016-10-26T10:49:26.407Z,18.59
2016-10-26T10:50:25.389Z,18.57
2016-10-26T10:51:25.998Z,18.5
2016-10-26T10:52:25.987Z,18.5
2016-10-26T10:53:25.970Z,18.62
2016-10-26T10:54:25.958Z,18.53
2016-10-26T10:55:25.938Z,18.56
2016-10-26T10:56:25.915Z,18.51
2016-10-26T10:57:25.891Z,18.54
2016-10-26T10:58:25.884Z,18.57
2016-10-26T10:59:25.889Z,18.53
2016-10-26T11:00:25.845Z,18.53
2016-10-26T11:01:25.828Z,18.54
2016-10-26T11:02:25.530Z,18.53
2016-10-26T11:03:25.820Z,18.51
2016-10-26T11:04:25.808Z,18.54
2016-10-26T11:05:25.753Z,18.54
2016-10-26T11:06:25.738Z,18.5
2016-10-26T11:07:25.729Z,18.62
2016-10-26T11:08:25.707Z,18.49
2016-10-26T11:09:25.684Z,18.53
2016-10-26T11:10:25.683Z,18.54
2016-10-26T11:11:25.654Z,18.54
2016-10-26T11:12:25.643Z,18.53
2016-10-26T11:13:25.619Z,18.54
2016-10-26T11:14:25.602Z,18.56
2016-10-26T11:15:25.273Z,18.54
2016-10-26T11:16:25.566Z,18.5
2016-10-26T11:17:25.234Z,18.59
2016-10-26T11:18:25.222Z,18.53
2016-10-26T11:19:25.514Z,18.57
2016-10-26T11:20:25.191Z,18.6
2016-10-26T11:21:25.491Z,18.51
2016-10-26T11:22:25.471Z,18.62
2016-10-26T11:23:25.446Z,18.54
2016-10-26T11:24:25.426Z,18.5
2016-10-26T11:25:25.416Z,18.57
2016-10-26T11:26:25.392Z,18.57
2016-10-26T11:27:25.059Z,18.56
2016-10-26T11:28:25.362Z,18.51
2016-10-26T11:29:25.345Z,18.64
2016-10-26T11:30:25.015Z,18.5
2016-10-26T11:31:25.312Z,18.54
2016-10-26T11:32:25.295Z,18.51
2016-10-26T11:33:24.958Z,18.54
2016-10-26T11:34:25.256Z,18.56
2016-10-26T11:35:25.236Z,18.54
2016-10-26T11:36:25.222Z,18.54
2016-10-26T11:37:24.887Z,18.54
2016-10-26T11:38:25.192Z,18.53
2016-10-26T11:39:25.208Z,18.56
2016-10-26T11:40:25.154Z,18.5
2016-10-26T11:41:25.142Z,18.51
2016-10-26T11:42:25.155Z,18.6
2016-10-26T11:43:24.792Z,18.51
2016-10-26T11:44:25.091Z,18.53
2016-10-26T11:45:25.066Z,18.53
2016-10-26T11:46:25.047Z,18.56
2016-10-26T11:47:25.037Z,18.53
2016-10-26T11:48:25.022Z,18.56
2016-10-26T11:49:24.687Z,18.54
2016-10-26T11:50:24.983Z,18.51
2016-10-26T11:51:24.656Z,18.53
2016-10-26T11:52:24.941Z,18.57
2016-10-26T11:53:24.613Z,18.53
2016-10-26T11:54:24.597Z,18.59
2016-10-26T11:55:24.263Z,18.49
2016-10-26T11:56:24.880Z,18.51
2016-10-26T11:57:24.909Z,18.59
2016-10-26T11:58:24.530Z,18.54
2016-10-26T11:59:24.823Z,18.54
2016-10-26T12:00:24.814Z,18.56
2016-10-26T12:01:24.788Z,18.54
2016-10-26T12:02:24.461Z,18.49
2016-10-26T12:03:24.442Z,18.53
2016-10-26T12:04:24.779Z,18.54
2016-10-26T12:05:24.725Z,18.53
2016-10-26T12:06:24.701Z,18.57
2016-10-26T12:07:24.387Z,18.56
2016-10-26T12:08:24.360Z,18.5
2016-10-26T12:09:24.357Z,18.56
2016-10-26T12:10:24.676Z,18.53
2016-10-26T12:11:24.617Z,18.53
2016-10-26T12:12:24.601Z,18.56
2016-10-26T12:13:24.588Z,18.51
2016-10-26T12:14:24.570Z,18.5
2016-10-26T12:15:24.547Z,18.51
2016-10-26T12:16:24.217Z,18.62
2016-10-26T12:17:24.751Z,18.53
2016-10-26T12:18:24.496Z,18.53
2016-10-26T12:19:24.481Z,18.5
2016-10-26T12:20:24.459Z,18.51
2016-10-26T12:21:24.452Z,18.51
2016-10-26T12:22:24.425Z,18.5
2016-10-26T12:23:24.096Z,18.47
2016-10-26T12:24:24.401Z,18.54
2016-10-26T12:25:24.380Z,18.53
2016-10-26T12:26:24.369Z,18.54
2016-10-26T12:27:24.375Z,18.57
2016-10-26T12:28:24.331Z,18.54
2016-10-26T12:29:23.995Z,18.57
2016-10-26T12:30:24.286Z,18.47
2016-10-26T12:31:23.960Z,18.51
2016-10-26T12:32:23.943Z,18.56
2016-10-26T12:33:24.246Z,18.54
2016-10-26T12:34:23.911Z,18.5
2016-10-26T12:35:24.214Z,18.57
2016-10-26T12:36:24.181Z,18.5
2016-10-26T12:37:24.175Z,18.51
2016-10-26T12:38:23.834Z,18.46
2016-10-26T12:39:24.133Z,18.51
2016-10-26T12:40:24.119Z,18.5
2016-10-26T12:41:23.797Z,18.51
2016-10-26T12:42:24.093Z,18.56
2016-10-26T12:43:24.076Z,18.57
2016-10-26T12:44:24.045Z,18.47
2016-10-26T12:45:24.035Z,18.53
2016-10-26T12:46:23.699Z,18.59
2016-10-26T12:47:23.685Z,18.5
2016-10-26T12:48:23.668Z,18.56
2016-10-26T12:49:23.963Z,18.6
2016-10-26T12:50:23.950Z,18.56
2016-10-26T12:51:23.929Z,18.53
2016-10-26T12:52:23.917Z,18.57
2016-10-26T12:53:23.898Z,18.53
2016-10-26T12:54:23.891Z,18.54